Time;durP1;ratioP1;P1;durP2;ratioP2;P2;SDS_P1;SDS_P2;PMS_P1;PMS_P2;Temp;Humidity;BMP_temperature;BMP_pressure;BME280_temperature;BME280_humidity;BME280_pressure;Samples;Min_cycle;Max_cycle;Signal;HPM_P1;HPM_P2
2024/02/02 00:01:35;;;;;;;12.30;6.20;;;;;;;-145.69;67.57;52323.59;5136900;27;20204;-80
2024/02/02 00:04:02;;;;;;;11.63;6.80;;;;;;;-145.69;68.05;52329.53;5136368;27;20189;-81
2024/02/02 00:06:29;;;;;;;12.53;6.43;;;;;;;-145.69;67.70;52331.50;5136730;27;20575;-80
2024/02/02 00:08:55;;;;;;;13.07;7.20;;;;;;;-145.69;68.20;52345.38;5136230;27;20212;-81
2024/02/02 00:11:23;;;;;;;11.50;6.47;;;;;;;-145.69;68.18;52315.66;5137063;27;20207;-78
2024/02/02 00:13:49;;;;;;;12.43;6.73;;;;;;;-145.69;68.29;52353.28;5136697;27;20208;-78
2024/02/02 00:16:16;;;;;;;13.17;6.67;;;;;;;-145.69;68.24;52329.53;5136527;27;20200;-78
2024/02/02 00:18:42;;;;;;;14.60;6.83;;;;;;;-145.69;68.26;52325.56;5125137;27;20225;-80
2024/02/02 00:21:09;;;;;;;12.93;7.03;;;;;;;-145.69;68.51;52297.84;5115896;28;20204;-80
2024/02/02 00:23:35;;;;;;;14.30;6.63;;;;;;;-145.69;68.40;52305.75;5115767;28;20679;-79
2024/02/02 00:26:02;;;;;;;11.77;6.87;;;;;;;-145.69;67.55;52321.59;5115626;28;20654;-79
2024/02/02 00:28:29;;;;;;;15.90;6.77;;;;;;;-145.69;68.22;52305.75;5115994;28;20189;-78
2024/02/02 00:30:56;;;;;;;13.83;6.90;;;;;;;-145.69;67.86;52321.59;5115689;28;20664;-78
2024/02/02 00:33:22;;;;;;;12.63;6.60;;;;;;;-145.69;67.49;52329.53;5132433;27;20193;-78
2024/02/02 00:35:49;;;;;;;11.57;6.27;;;;;;;-145.69;68.00;52317.66;5135987;27;20209;-79
2024/02/02 00:38:15;;;;;;;13.83;6.93;;;;;;;-145.69;67.82;52349.31;5136137;27;20228;-78
2024/02/02 00:40:42;;;;;;;12.20;6.40;;;;;;;-145.69;67.68;52325.56;5135743;27;20197;-79
2024/02/02 00:43:08;;;;;;;12.27;6.40;;;;;;;-145.69;67.70;52349.31;5136081;27;20197;-79
2024/02/02 00:45:36;;;;;;;13.03;6.50;;;;;;;-145.69;67.85;52321.59;5135974;27;20196;-79
2024/02/02 00:48:03;;;;;;;10.90;6.40;;;;;;;-145.69;68.25;52361.22;5135062;27;20196;-78
2024/02/02 00:50:29;;;;;;;17.93;8.03;;;;;;;-145.69;68.62;52341.41;5136102;27;20252;-79
2024/02/02 00:52:56;;;;;;;12.27;7.00;;;;;;;-145.69;67.75;52329.53;5135664;27;20208;-79
2024/02/02 00:55:22;;;;;;;13.57;7.77;;;;;;;-145.69;67.63;52319.63;5136091;27;20201;-80
2024/02/02 00:57:49;;;;;;;16.87;7.50;;;;;;;-145.69;67.98;52347.34;5135430;27;20224;-80
2024/02/02 01:00:15;;;;;;;13.47;7.03;;;;;;;-145.69;68.06;52333.47;5135623;27;20203;-80
2024/02/02 01:02:43;;;;;;;13.03;6.43;;;;;;;-145.69;67.65;52351.31;5135474;27;20556;-79
2024/02/02 01:05:10;;;;;;;13.53;6.63;;;;;;;-145.69;67.65;52311.69;5135154;27;20189;-80
2024/02/02 01:07:36;;;;;;;11.33;6.37;;;;;;;-145.69;67.91;52365.16;5135188;27;20196;-78
2024/02/02 01:10:04;;;;;;;14.00;7.20;;;;;;;-145.69;68.11;52337.44;5134955;27;20197;-79
2024/02/02 01:12:30;;;;;;;12.97;6.93;;;;;;;-145.69;68.22;52349.31;5135758;27;20201;-79
2024/02/02 01:14:57;;;;;;;17.77;7.87;;;;;;;-145.69;69.31;52289.91;5134305;27;20189;-80
2024/02/02 01:17:23;;;;;;;15.87;7.70;;;;;;;-145.69;69.06;52343.38;5135093;27;20258;-80
2024/02/02 01:19:51;;;;;;;18.87;8.33;;;;;;;-145.69;69.95;52341.41;5135189;27;20185;-80
2024/02/02 01:22:17;;;;;;;21.40;9.20;;;;;;;-145.69;69.19;52329.53;5135449;27;20201;-80
2024/02/02 01:24:44;;;;;;;16.47;8.23;;;;;;;-145.69;69.28;52299.81;5135181;27;20287;-80
2024/02/02 01:27:10;;;;;;;17.40;8.07;;;;;;;-145.69;69.91;52337.44;5135155;27;20208;-80
2024/02/02 01:29:37;;;;;;;12.30;6.93;;;;;;;-145.69;68.80;52309.72;5133714;27;20192;-80
2024/02/02 01:32:04;;;;;;;18.27;8.33;;;;;;;-145.69;69.31;52331.50;5134758;27;20558;-80
2024/02/02 01:34:31;;;;;;;15.37;7.40;;;;;;;-145.69;68.84;52278.03;5134718;27;20667;-80
2024/02/02 01:36:59;;;;;;;16.17;7.57;;;;;;;-145.69;69.04;52305.75;5134968;27;20193;-79
2024/02/02 01:39:25;;;;;;;18.53;7.63;;;;;;;-145.69;69.21;52305.75;5133165;27;20216;-80
2024/02/02 01:41:52;;;;;;;14.43;7.17;;;;;;;-145.69;69.44;52373.09;5134617;27;20196;-80
2024/02/02 01:44:19;;;;;;;16.43;8.00;;;;;;;-145.69;69.49;52335.47;5134317;27;20208;-79
2024/02/02 01:46:47;;;;;;;17.13;7.47;;;;;;;-145.69;69.17;52313.69;5134683;27;20288;-79
2024/02/02 01:49:13;;;;;;;16.47;7.23;;;;;;;-145.69;69.02;52369.13;5134287;27;20242;-79
2024/02/02 01:51:40;;;;;;;12.93;7.50;;;;;;;-145.69;69.04;52341.41;5134419;27;20228;-79
2024/02/02 01:54:09;;;;;;;17.73;8.13;;;;;;;-145.69;69.11;52309.72;5134710;27;20204;-79
2024/02/02 01:56:36;;;;;;;13.47;6.30;;;;;;;-145.69;69.22;52349.31;5134486;27;20648;-79
2024/02/02 01:59:03;;;;;;;15.23;7.10;;;;;;;-145.69;69.26;52303.78;5134584;27;20231;-79
2024/02/02 02:01:30;;;;;;;12.23;5.83;;;;;;;-145.69;68.32;52303.78;5134748;27;20192;-79
2024/02/02 02:03:57;;;;;;;13.43;6.53;;;;;;;-145.69;68.31;52343.38;5133871;27;20199;-79
2024/02/02 02:06:24;;;;;;;11.57;6.57;;;;;;;-145.69;68.10;52315.66;5134540;27;20657;-79
2024/02/02 02:08:50;;;;;;;10.93;6.03;;;;;;;-145.69;67.98;52321.59;5133706;27;20189;-79
2024/02/02 02:11:18;;;;;;;13.87;6.60;;;;;;;-145.69;68.42;52361.22;5134198;27;20207;-79
2024/02/02 02:13:45;;;;;;;12.83;7.07;;;;;;;-145.69;68.29;52353.28;5121142;27;20193;-79
2024/02/02 02:16:11;;;;;;;15.83;7.07;;;;;;;-145.69;68.61;52341.41;5113851;28;20198;-79
2024/02/02 02:18:38;;;;;;;11.53;5.90;;;;;;;-145.69;68.50;52341.41;5113719;28;20233;-79
2024/02/02 02:21:22;;;;;;;11.93;6.13;;;;;;;-145.69;68.72;52331.50;5123016;27;20215;-80
2024/02/02 02:23:49;;;;;;;15.00;7.33;;;;;;;-145.69;69.45;52305.75;5134075;27;20205;-80
2024/02/02 02:26:15;;;;;;;15.40;6.93;;;;;;;-145.69;69.49;52325.56;5133961;27;20197;-80
2024/02/02 02:28:42;;;;;;;14.37;6.87;;;;;;;-145.69;69.59;52335.47;5133981;27;20197;-79
2024/02/02 02:31:11;;;;;;;19.23;8.13;;;;;;;-145.69;69.93;52329.53;5133864;27;20205;-79
2024/02/02 02:33:37;;;;;;;19.10;8.07;;;;;;;-145.69;69.77;52321.59;5133715;27;20585;-79
2024/02/02 02:36:04;;;;;;;14.20;7.50;;;;;;;-145.69;69.70;52289.91;5133935;27;20219;-80
2024/02/02 02:38:32;;;;;;;15.07;8.10;;;;;;;-145.69;69.26;52301.81;5133760;27;20239;-79
2024/02/02 02:40:59;;;;;;;14.10;6.83;;;;;;;-145.69;68.80;52282.00;5133371;27;20219;-80
2024/02/02 02:43:27;;;;;;;11.87;6.47;;;;;;;-145.69;68.92;52339.44;5134183;27;20609;-79
2024/02/02 02:45:54;;;;;;;11.50;6.60;;;;;;;-145.69;69.14;52307.75;5133544;27;20560;-80
2024/02/02 02:48:20;;;;;;;12.77;6.13;;;;;;;-145.69;69.25;52311.69;5133668;27;20201;-79
2024/02/02 02:50:47;;;;;;;12.17;6.40;;;;;;;-145.69;68.93;52361.22;5133231;27;20220;-79
2024/02/02 02:53:14;;;;;;;12.80;6.37;;;;;;;-145.69;68.86;52295.84;5133940;27;20659;-79
2024/02/02 02:55:41;;;;;;;13.67;6.23;;;;;;;-145.69;69.01;52325.56;5133744;27;20193;-79
2024/02/02 02:58:08;;;;;;;14.73;7.23;;;;;;;-145.69;69.04;52319.63;5133656;27;20230;-79
2024/02/02 03:00:35;;;;;;;13.73;6.50;;;;;;;-145.69;69.00;52301.81;5133363;27;20246;-79
2024/02/02 03:03:02;;;;;;;14.27;7.40;;;;;;;-145.69;69.11;52357.25;5133353;27;20267;-79
2024/02/02 03:05:30;;;;;;;16.20;7.73;;;;;;;-145.69;69.09;52317.66;5133100;27;20643;-80
2024/02/02 03:07:56;;;;;;;15.37;7.07;;;;;;;-145.69;69.10;52321.59;5133444;27;20197;-79
2024/02/02 03:10:25;;;;;;;10.87;6.10;;;;;;;-145.69;69.59;52323.59;5136573;27;20696;-79
2024/02/02 03:12:53;;;;;;;16.73;8.10;;;;;;;-145.69;69.44;52317.66;5140469;27;20200;-79
2024/02/02 03:15:19;;;;;;;13.03;7.43;;;;;;;-145.69;69.24;52309.72;5140034;27;20208;-79
2024/02/02 03:17:46;;;;;;;15.67;6.83;;;;;;;-145.69;69.17;52317.66;5140165;27;20692;-79
2024/02/02 03:20:13;;;;;;;15.37;7.93;;;;;;;-145.69;69.34;52301.81;5140400;27;20223;-79
2024/02/02 03:22:39;;;;;;;12.77;7.50;;;;;;;-145.69;69.31;52313.69;5140083;27;20204;-78
2024/02/02 03:25:07;;;;;;;12.13;6.47;;;;;;;-145.69;69.46;52313.69;5140204;27;20196;-79
2024/02/02 03:27:36;;;;;;;11.83;5.97;;;;;;;-145.69;69.39;52309.72;5140367;27;20200;-78
2024/02/02 03:30:07;;;;;;;12.63;6.67;;;;;;;-145.69;69.73;52321.59;5140263;27;20193;-79
2024/02/02 03:32:34;;;;;;;13.93;6.30;;;;;;;-145.69;69.69;52353.28;5139739;27;20200;-78
2024/02/02 03:35:00;;;;;;;12.63;6.23;;;;;;;-145.69;69.32;52321.59;5140067;27;20197;-79
2024/02/02 03:37:27;;;;;;;12.03;5.53;;;;;;;-145.69;69.49;52289.91;5139794;27;20245;-80
2024/02/02 03:39:53;;;;;;;12.03;5.60;;;;;;;-145.69;69.49;52309.72;5139971;27;20284;-79
2024/02/02 03:42:19;;;;;;;9.67;5.57;;;;;;;-145.69;69.86;52327.53;5139574;27;20200;-79
2024/02/02 03:44:46;;;;;;;11.67;6.10;;;;;;;-145.69;69.56;52305.75;5140174;27;20651;-79
2024/02/02 03:47:14;;;;;;;12.87;5.80;;;;;;;-145.69;69.16;52299.81;5139765;27;20199;-80
2024/02/02 03:49:40;;;;;;;11.80;5.33;;;;;;;-145.69;69.40;52353.28;5140109;27;20196;-80
2024/02/02 03:52:07;;;;;;;11.27;5.70;;;;;;;-145.69;69.78;52333.47;5139948;27;20249;-79
2024/02/02 03:54:34;;;;;;;11.70;5.50;;;;;;;-145.69;69.36;52345.38;5140194;27;20196;-80
2024/02/02 03:57:01;;;;;;;10.50;5.10;;;;;;;-145.69;70.03;52325.56;5140057;27;20199;-79
2024/02/02 03:59:29;;;;;;;9.30;5.27;;;;;;;-145.69;69.72;52321.59;5139168;27;20224;-79
2024/02/02 04:01:55;;;;;;;9.10;5.43;;;;;;;-145.69;69.82;52293.88;5139921;27;20203;-80
2024/02/02 04:04:23;;;;;;;9.30;4.67;;;;;;;-145.69;69.47;52293.88;5139627;27;20220;-78
2024/02/02 04:06:50;;;;;;;7.97;4.40;;;;;;;-145.69;69.54;52317.66;5139883;27;20188;-79
2024/02/02 04:09:17;;;;;;;9.27;4.20;;;;;;;-145.69;69.39;52301.81;5139813;27;20757;-79
2024/02/02 04:11:43;;;;;;;12.37;4.80;;;;;;;-145.69;69.10;52345.38;5140012;27;20205;-79
2024/02/02 04:14:10;;;;;;;9.10;5.00;;;;;;;-145.69;68.98;52353.28;5139766;27;20208;-78
2024/02/02 04:16:36;;;;;;;9.70;4.47;;;;;;;-145.69;69.19;52321.59;5140003;27;20287;-79
2024/02/02 04:19:02;;;;;;;7.07;3.87;;;;;;;-145.69;68.90;52266.16;5139378;27;20584;-79
2024/02/02 04:21:30;;;;;;;8.33;4.50;;;;;;;-145.69;69.06;52317.66;5135451;27;20651;-78
2024/02/02 04:23:57;;;;;;;10.20;5.47;;;;;;;-145.69;69.45;52349.31;5136345;27;20204;-79
2024/02/02 04:26:23;;;;;;;11.83;5.60;;;;;;;-145.69;69.74;52301.81;5136564;27;20200;-78
2024/02/02 04:28:49;;;;;;;10.80;4.83;;;;;;;-145.69;69.79;52329.53;5135915;27;20212;-79
2024/02/02 04:31:16;;;;;;;10.50;5.23;;;;;;;-145.69;69.83;52329.53;5136477;27;20201;-78
2024/02/02 04:33:42;;;;;;;9.57;5.07;;;;;;;-145.69;69.86;52293.88;5136374;27;20196;-78
2024/02/02 04:36:09;;;;;;;10.13;5.63;;;;;;;-145.69;69.37;52315.66;5135770;27;20204;-79
2024/02/02 04:38:37;;;;;;;11.87;5.23;;;;;;;-145.69;69.72;52299.81;5136135;27;20786;-79
2024/02/02 04:41:03;;;;;;;10.37;4.93;;;;;;;-145.69;69.98;52343.38;5136162;27;20196;-79
2024/02/02 04:43:30;;;;;;;8.73;4.87;;;;;;;-145.69;69.91;52301.81;5136196;27;20204;-78
2024/02/02 04:45:56;;;;;;;11.60;4.70;;;;;;;-145.69;69.39;52325.56;5136077;27;20209;-80
2024/02/02 04:48:23;;;;;;;8.13;4.50;;;;;;;-145.69;69.82;52295.84;5136155;27;20675;-78
2024/02/02 04:50:49;;;;;;;8.87;5.10;;;;;;;-145.69;69.59;52335.47;5135543;27;20236;-79
2024/02/02 04:53:16;;;;;;;8.73;4.40;;;;;;;-145.69;69.74;52303.78;5135788;27;20200;-78
2024/02/02 04:55:43;;;;;;;7.07;4.23;;;;;;;-145.69;69.88;52313.69;5135774;27;20197;-77
2024/02/02 04:58:10;;;;;;;10.13;4.70;;;;;;;-145.69;70.08;52317.66;5136154;27;20213;-80
2024/02/02 05:00:36;;;;;;;10.53;4.13;;;;;;;-145.69;69.74;52319.63;5135938;27;20196;-80
2024/02/02 05:03:03;;;;;;;6.30;4.00;;;;;;;-145.69;69.71;52305.75;5135531;27;20188;-79
2024/02/02 05:05:29;;;;;;;8.40;4.20;;;;;;;-145.69;70.07;52301.81;5135061;27;20203;-80
2024/02/02 05:07:56;;;;;;;7.40;4.23;;;;;;;-145.69;70.04;52339.44;5135702;27;20193;-78
2024/02/02 05:10:25;;;;;;;7.20;3.97;;;;;;;-145.69;69.82;52361.22;5135329;27;20196;-80
2024/02/02 05:12:53;;;;;;;10.37;3.70;;;;;;;-145.69;69.67;52325.56;5134377;27;20196;-79
2024/02/02 05:15:19;;;;;;;6.70;3.87;;;;;;;-145.69;69.79;52289.91;5134977;27;20207;-79
2024/02/02 05:17:46;;;;;;;7.93;4.33;;;;;;;-145.69;69.46;52305.75;5134954;27;20212;-79
2024/02/02 05:20:12;;;;;;;8.07;4.10;;;;;;;-145.69;69.41;52315.66;5135510;27;20228;-79
2024/02/02 05:22:40;;;;;;;6.97;3.93;;;;;;;-145.69;68.94;52293.88;5135189;27;20197;-79
2024/02/02 05:25:07;;;;;;;9.63;4.43;;;;;;;-145.69;69.37;52301.81;5135324;27;20724;-79
2024/02/02 05:27:33;;;;;;;6.80;4.10;;;;;;;-145.69;69.35;52321.59;5135162;27;20208;-80
2024/02/02 05:30:01;;;;;;;9.20;4.23;;;;;;;-145.69;69.29;52305.75;5134904;27;20208;-80
2024/02/02 05:32:28;;;;;;;12.10;5.00;;;;;;;-145.69;69.41;52289.91;5135041;27;20711;-79
2024/02/02 05:34:54;;;;;;;10.27;5.50;;;;;;;-145.69;69.68;52323.59;5134730;27;20193;-79
2024/02/02 05:37:20;;;;;;;11.17;5.70;;;;;;;-145.69;69.96;52289.91;5134727;27;20212;-79
2024/02/02 05:39:47;;;;;;;12.53;6.07;;;;;;;-145.69;69.62;52321.59;5134816;27;20636;-80
2024/02/02 05:42:14;;;;;;;13.07;6.50;;;;;;;-145.69;69.97;52325.56;5135144;27;20647;-79
2024/02/02 05:44:42;;;;;;;14.60;6.50;;;;;;;-145.69;69.30;52272.09;5134400;27;20287;-80
2024/02/02 05:47:10;;;;;;;10.87;5.47;;;;;;;-145.69;69.18;52331.50;5134619;27;20219;-80
2024/02/02 05:49:36;;;;;;;13.87;5.70;;;;;;;-145.69;68.82;52339.44;5134159;27;20193;-80
2024/02/02 05:52:03;;;;;;;8.90;5.23;;;;;;;-145.69;69.28;52349.31;5134778;27;20201;-79
2024/02/02 05:54:29;;;;;;;8.53;4.40;;;;;;;-145.69;69.30;52337.44;5134305;27;20608;-80
2024/02/02 05:56:56;;;;;;;10.67;4.47;;;;;;;-145.69;69.11;52309.72;5134661;27;20599;-79
2024/02/02 05:59:23;;;;;;;8.47;4.50;;;;;;;-145.69;69.49;52323.59;5134495;27;20224;-79
2024/02/02 06:01:49;;;;;;;13.73;5.27;;;;;;;-145.69;68.89;52325.56;5134720;27;20236;-80
2024/02/02 06:04:17;;;;;;;12.00;5.10;;;;;;;-145.69;69.30;52327.53;5134813;27;20269;-80
2024/02/02 06:06:43;;;;;;;12.00;4.70;;;;;;;-145.69;69.45;52301.81;5133847;27;20196;-79
2024/02/02 06:09:11;;;;;;;12.73;4.27;;;;;;;-145.69;69.89;52321.59;5134640;27;20205;-78
2024/02/02 06:11:37;;;;;;;9.40;4.10;;;;;;;-145.69;69.72;52303.78;5134464;27;20200;-79
2024/02/02 06:14:04;;;;;;;8.83;4.77;;;;;;;-145.69;69.62;52323.59;5133780;27;20203;-79
2024/02/02 06:16:30;;;;;;;8.27;4.00;;;;;;;-145.69;70.03;52313.69;5133946;27;20205;-79
2024/02/02 06:18:56;;;;;;;8.27;4.37;;;;;;;-145.69;69.61;52325.56;5133987;27;20217;-79
2024/02/02 06:21:24;;;;;;;7.20;3.87;;;;;;;-145.69;69.30;52305.75;5133051;27;20196;-79
2024/02/02 06:23:51;;;;;;;8.70;4.37;;;;;;;-145.69;69.86;52301.81;5132746;27;20734;-79
2024/02/02 06:26:17;;;;;;;8.00;3.90;;;;;;;-145.69;69.46;52325.56;5134370;27;20540;-79
2024/02/02 06:28:45;;;;;;;6.63;3.37;;;;;;;-145.69;69.44;52307.75;5134115;27;20223;-79
2024/02/02 06:31:13;;;;;;;5.80;3.77;;;;;;;-145.69;69.57;52299.81;5133844;27;20559;-79
2024/02/02 06:33:40;;;;;;;9.00;4.27;;;;;;;-145.69;69.36;52319.63;5133819;27;20197;-80
2024/02/02 06:36:07;;;;;;;7.93;4.50;;;;;;;-145.69;70.45;52319.63;5133158;27;20433;-80
2024/02/02 06:38:35;;;;;;;8.00;4.20;;;;;;;-145.69;70.19;52299.81;5133935;27;20196;-80
2024/02/02 06:41:02;;;;;;;9.13;3.97;;;;;;;-145.69;69.91;52309.72;5133035;27;20189;-80
2024/02/02 06:43:28;;;;;;;9.70;4.00;;;;;;;-145.69;69.79;52282.00;5133462;27;20193;-79
2024/02/02 06:45:54;;;;;;;8.93;4.40;;;;;;;-145.69;69.79;52307.75;5133109;27;20203;-80
2024/02/02 06:48:21;;;;;;;8.10;3.70;;;;;;;-145.69;69.54;52313.69;5133418;27;20658;-79
2024/02/02 06:50:47;;;;;;;5.50;3.60;;;;;;;-145.69;69.26;52357.25;5133485;27;20228;-79
2024/02/02 06:53:15;;;;;;;7.30;3.90;;;;;;;-145.69;69.34;52323.59;5133408;27;20693;-79
2024/02/02 06:55:43;;;;;;;5.93;3.47;;;;;;;-145.69;69.31;52301.81;5133461;27;20216;-79
2024/02/02 06:58:24;;;;;;;5.73;3.50;;;;;;;-145.69;69.75;52270.13;5133404;27;20220;-80
2024/02/02 07:00:50;;;;;;;6.70;3.80;;;;;;;-145.69;69.26;52329.53;5133311;27;20301;-80
2024/02/02 07:03:17;;;;;;;8.07;3.73;;;;;;;-145.69;69.49;52309.72;5133510;27;20670;-79
2024/02/02 07:05:44;;;;;;;7.20;3.53;;;;;;;-145.69;69.23;52291.91;5133150;27;20195;-79
2024/02/02 07:08:10;;;;;;;6.57;3.70;;;;;;;-145.69;68.99;52327.53;5133077;27;20201;-79
2024/02/02 07:10:36;;;;;;;10.63;3.70;;;;;;;-145.69;68.50;52297.84;5133545;27;20192;-79
2024/02/02 07:13:04;;;;;;;7.83;4.13;;;;;;;-145.69;68.72;52327.53;5133199;27;20200;-80
2024/02/02 07:15:32;;;;;;;5.70;3.37;;;;;;;-145.69;69.39;52341.41;5132664;27;20196;-79
2024/02/02 07:17:58;;;;;;;6.23;3.40;;;;;;;-145.69;69.09;52309.72;5133473;27;20192;-79
2024/02/02 07:21:04;;;;;;;6.20;3.60;;;;;;;-145.69;68.59;52287.94;5133521;27;20696;-79
2024/02/02 07:23:35;;;;;;;7.40;3.60;;;;;;;-145.69;68.78;52327.53;5133452;27;20228;-79
2024/02/02 07:26:05;;;;;;;6.07;4.07;;;;;;;-145.69;69.12;52319.63;5133335;27;20279;-79
2024/02/02 07:28:35;;;;;;;7.53;3.87;;;;;;;-145.69;69.00;52321.59;5133990;28;20555;-79
2024/02/02 07:31:03;;;;;;;8.00;3.47;;;;;;;-145.69;68.98;52329.53;5133603;28;20228;-79
2024/02/02 07:33:36;;;;;;;4.87;3.40;;;;;;;-145.69;69.39;52309.72;5133178;28;20207;-80
2024/02/02 07:36:02;;;;;;;4.90;2.83;;;;;;;-145.69;69.04;52345.38;5132479;27;20583;-79
2024/02/02 07:38:48;;;;;;;7.97;4.50;;;;;;;-145.69;68.70;52301.81;5133391;27;20249;-79
2024/02/02 07:41:17;;;;;;;21.43;10.03;;;;;;;-145.69;68.13;52305.75;5133248;27;20307;-80
2024/02/02 07:43:47;;;;;;;81.73;38.10;;;;;;;-145.69;68.62;52299.81;5133080;28;20204;-80
2024/02/02 07:46:13;;;;;;;77.53;33.73;;;;;;;-145.69;69.50;52291.91;5132699;27;20197;-81
2024/02/02 07:48:40;;;;;;;75.70;34.33;;;;;;;-145.69;69.16;52285.97;5132826;28;20197;-80
2024/02/02 07:51:07;;;;;;;82.97;37.83;;;;;;;-145.69;69.52;52307.75;5132532;27;20228;-81
2024/02/02 07:53:34;;;;;;;68.30;30.63;;;;;;;-145.69;69.24;52307.75;5133161;27;20197;-80
2024/02/02 07:56:00;;;;;;;38.93;17.67;;;;;;;-145.69;69.33;52317.66;5133426;27;20209;-81
2024/02/02 07:58:27;;;;;;;23.00;10.37;;;;;;;-145.69;68.97;52272.09;5137126;27;20197;-80
2024/02/02 08:00:55;;;;;;;10.27;5.93;;;;;;;-145.69;69.04;52323.59;5136365;27;20848;-80
2024/02/02 08:03:21;;;;;;;14.17;5.40;;;;;;;-145.69;68.69;52339.44;5136590;27;20577;-80
2024/02/02 08:05:48;;;;;;;11.77;6.63;;;;;;;-145.69;68.50;52289.91;5136670;27;20197;-80
2024/02/02 08:08:14;;;;;;;14.37;7.27;;;;;;;-145.69;68.48;52244.38;5136865;27;20208;-80
2024/02/02 08:10:42;;;;;;;8.93;4.50;;;;;;;-145.69;68.75;52309.72;5136329;27;20207;-80
2024/02/02 08:13:09;;;;;;;9.83;4.80;;;;;;;-145.69;68.58;52295.84;5136532;27;20707;-80
2024/02/02 08:15:37;;;;;;;10.00;4.67;;;;;;;-145.69;67.92;52282.00;5136516;27;20253;-80
2024/02/02 08:18:05;;;;;;;7.70;4.30;;;;;;;-145.69;68.83;52313.69;5136507;27;20201;-81
2024/02/02 08:20:31;;;;;;;7.43;4.27;;;;;;;-145.69;68.60;52289.91;5136365;27;20228;-80
2024/02/02 08:22:58;;;;;;;11.43;4.73;;;;;;;-145.69;68.31;52311.69;5136584;27;20200;-80
2024/02/02 08:25:24;;;;;;;9.63;4.80;;;;;;;-145.69;68.20;52307.75;5136562;27;20197;-81
2024/02/02 08:27:51;;;;;;;9.90;5.23;;;;;;;-145.69;67.65;52297.84;5127095;27;20309;-80
2024/02/02 08:30:18;;;;;;;11.37;4.60;;;;;;;-145.69;67.95;52276.06;5119335;27;20200;-80
2024/02/02 08:32:51;;;;;;;6.73;3.80;;;;;;;-145.69;68.12;52313.69;5136320;27;20201;-81
2024/02/02 08:35:20;;;;;;;6.73;3.70;;;;;;;-145.69;68.37;52327.53;5136113;27;20224;-79
2024/02/02 08:37:46;;;;;;;4.23;3.17;;;;;;;-145.69;67.82;52282.00;5136021;27;20704;-80
2024/02/02 08:40:25;;;;;;;5.83;3.50;;;;;;;-145.69;65.73;52266.16;5135979;27;20624;-79
2024/02/02 08:42:51;;;;;;;5.17;3.40;;;;;;;-145.69;67.35;52313.69;5115517;28;20205;-79
2024/02/02 08:45:57;;;;;;;6.00;3.60;;;;;;;-145.69;67.21;52258.22;5115695;28;20212;-79
2024/02/02 08:48:33;;;;;;;8.63;3.30;;;;;;;-145.69;66.56;52266.16;5122191;27;20647;-78
2024/02/02 08:51:01;;;;;;;5.73;3.33;;;;;;;-145.69;67.46;52287.94;5135582;27;20648;-79
2024/02/02 08:53:28;;;;;;;4.10;2.90;;;;;;;-145.69;68.19;52287.94;5135716;27;20208;-79
2024/02/02 08:55:58;;;;;;;4.27;2.80;;;;;;;-145.69;66.85;52313.69;5135439;27;20659;-79
2024/02/02 08:58:27;;;;;;;3.97;2.80;;;;;;;-145.69;66.29;52309.72;5136049;27;20197;-78
2024/02/02 09:00:54;;;;;;;4.77;2.50;;;;;;;-145.69;66.13;52264.16;5135764;27;20227;-79
2024/02/02 09:03:28;;;;;;;3.73;2.20;;;;;;;-145.69;65.11;52283.97;5135450;27;20222;-79
2024/02/02 09:05:56;;;;;;;4.80;2.27;;;;;;;-145.69;62.04;52282.00;5135442;27;20227;-78
2024/02/02 09:08:33;;;;;;;3.83;2.30;;;;;;;-145.69;60.58;52299.81;5134973;27;20233;-79
2024/02/02 09:11:24;;;;;;;3.63;2.33;;;;;;;-145.69;62.70;52266.16;5135723;27;20200;-78
2024/02/02 09:14:06;;;;;;;2.97;1.70;;;;;;;-145.69;61.59;52266.16;5135294;27;20287;-79
2024/02/02 09:16:52;;;;;;;2.97;1.93;;;;;;;-145.69;59.31;52274.06;5133574;27;20291;-78
2024/02/02 09:19:31;;;;;;;3.93;2.30;;;;;;;-145.69;60.99;52274.06;5135044;27;20231;-79
2024/02/02 09:22:00;;;;;;;3.23;2.00;;;;;;;-145.69;58.36;52280.00;5135259;27;20200;-80
2024/02/02 09:24:47;;;;;;;4.67;2.37;;;;;;;-145.69;58.02;52238.44;5122125;27;20205;-78
2024/02/02 09:27:14;;;;;;;9.70;4.60;;;;;;;-145.69;59.72;52270.13;5123164;27;20205;-79
2024/02/02 09:29:45;;;;;;;4.27;2.40;;;;;;;-145.69;56.92;52266.16;5114728;28;20201;-80
2024/02/02 09:32:13;;;;;;;10.27;4.90;;;;;;;-145.69;58.13;52240.41;5114804;28;20270;-80
2024/02/02 09:34:41;;;;;;;2.97;2.10;;;;;;;-145.69;56.04;52270.13;5132765;27;20196;-80
2024/02/02 09:37:09;;;;;;;2.37;1.77;;;;;;;-145.69;55.58;52285.97;5134937;27;20614;-80
2024/02/02 09:39:51;;;;;;;3.60;2.23;;;;;;;-145.69;56.07;52216.66;5134914;27;20298;-80
2024/02/02 09:42:38;;;;;;;4.87;3.13;;;;;;;-145.69;56.14;52238.44;5135059;27;20199;-81
2024/02/02 09:45:11;;;;;;;4.83;3.07;;;;;;;-145.69;56.12;52226.53;5134763;27;20223;-81
2024/02/02 09:48:05;;;;;;;4.30;2.60;;;;;;;-145.69;53.04;52266.16;5134889;27;20197;-80
2024/02/02 09:50:45;;;;;;;2.47;1.50;;;;;;;-145.69;51.69;52260.22;5130830;27;20281;-80
2024/02/02 09:53:47;;;;;;;2.50;1.50;;;;;;;-145.69;53.42;52234.47;5134882;27;20682;-80
2024/02/02 09:56:23;;;;;;;1.63;1.33;;;;;;;-145.69;51.94;52258.22;5134782;27;20197;-81
2024/02/02 09:58:56;;;;;;;3.53;1.70;;;;;;;-145.69;51.59;52270.13;5134322;27;20316;-81
2024/02/02 10:01:47;;;;;;;1.67;1.40;;;;;;;-145.69;51.32;52262.19;5134809;27;20224;-80
2024/02/02 10:04:31;;;;;;;4.43;1.50;;;;;;;-145.69;51.78;52270.13;5134079;27;20687;-80
2024/02/02 10:07:11;;;;;;;2.07;1.33;;;;;;;-145.69;52.23;52228.53;5134401;27;20704;-81
2024/02/02 10:09:57;;;;;;;1.73;1.30;;;;;;;-145.69;51.25;52254.28;5134454;27;20206;-80
2024/02/02 10:12:44;;;;;;;3.23;1.50;;;;;;;-145.69;50.59;52250.31;5133743;27;20220;-80
2024/02/02 10:15:31;;;;;;;2.30;1.70;;;;;;;-145.69;50.24;52224.56;5134357;27;20200;-80
2024/02/02 10:18:25;;;;;;;2.93;1.73;;;;;;;-145.69;48.97;52238.44;5134306;27;20197;-81
2024/02/02 10:20:56;;;;;;;24.10;8.00;;;;;;;-145.69;49.45;52222.59;5114446;27;20676;-80
2024/02/02 10:24:10;;;;;;;17.43;6.37;;;;;;;-145.69;48.82;52214.66;5132206;27;20674;-79
2024/02/02 10:27:03;;;;;;;22.13;8.77;;;;;;;-145.69;47.07;52206.75;5093293;27;20195;-80
2024/02/02 10:29:44;;;;;;;17.07;7.67;;;;;;;-145.69;48.26;52218.63;5134107;27;20200;-80
2024/02/02 10:32:27;;;;;;;20.67;8.07;;;;;;;-145.69;47.76;52250.31;5133960;27;20659;-80
2024/02/02 10:35:05;;;;;;;10.90;5.00;;;;;;;-145.69;49.06;52258.22;5133660;27;20269;-80
2024/02/02 10:37:35;;;;;;;3.37;1.60;;;;;;;-145.69;47.74;52234.47;5134071;27;20253;-79
2024/02/02 10:40:14;;;;;;;2.42;1.50;;;;;;;-145.69;47.43;52226.53;5133006;27;20205;-79
2024/02/02 10:42:58;;;;;;;2.28;1.70;;;;;;;-145.69;47.03;52238.44;5133909;27;20204;-78
2024/02/02 10:45:32;;;;;;;1.83;1.13;;;;;;;-145.69;46.61;52242.38;5133875;27;20211;-81
2024/02/02 10:48:13;;;;;;;1.80;1.27;;;;;;;-145.69;46.64;52198.81;5133770;27;20200;-80
2024/02/02 10:50:54;;;;;;;1.03;0.93;;;;;;;-145.69;46.69;52218.63;5133501;27;20875;-81
2024/02/02 10:53:32;;;;;;;1.20;1.10;;;;;;;-145.69;46.59;52210.72;5133796;27;20196;-81
2024/02/02 10:56:13;;;;;;;2.33;1.20;;;;;;;-145.69;46.51;52204.75;5133483;27;20196;-81
2024/02/02 10:58:54;;;;;;;1.20;1.10;;;;;;;-145.69;46.50;52228.53;5113110;28;20201;-80
2024/02/02 11:01:30;;;;;;;1.50;1.00;;;;;;;-145.69;45.75;52202.78;5115574;28;20232;-80
2024/02/02 11:04:05;;;;;;;2.47;1.13;;;;;;;-145.69;45.93;52186.94;5133331;27;20196;-80
2024/02/02 11:06:41;;;;;;;1.58;0.88;;;;;;;-145.69;44.69;52222.59;5133536;27;20689;-79
2024/02/02 11:09:16;;;;;;;1.30;1.00;;;;;;;-145.69;45.66;52234.47;5133743;27;20207;-79
2024/02/02 11:11:47;;;;;;;1.15;0.88;;;;;;;-145.69;45.62;52198.81;5133012;28;20188;-80
2024/02/02 11:14:22;;;;;;;1.55;1.00;;;;;;;-145.69;45.34;52181.00;5132667;27;20245;-80
2024/02/02 11:17:00;;;;;;;1.63;0.90;;;;;;;-145.69;44.78;52200.81;5133181;27;20208;-80
2024/02/02 11:19:46;;;;;;;1.30;1.02;;;;;;;-145.69;44.38;52198.81;5133452;27;20257;-80
2024/02/02 11:22:21;;;;;;;0.70;0.70;;;;;;;-145.69;43.40;52222.59;5133286;27;20231;-79
2024/02/02 11:24:58;;;;;;;2.75;0.93;;;;;;;-145.69;43.77;52218.63;5133329;27;20199;-79